sensor_id;sensor_type;location;lat;lon;timestamp;temperature;humidity
53962;DHT22;39868;53.398;6.564;2022-08-20T00:01:41;21.60;78.50
53962;DHT22;39868;53.398;6.564;2022-08-20T00:04:09;21.60;78.40
53962;DHT22;39868;53.398;6.564;2022-08-20T00:06:37;21.60;78.40
53962;DHT22;39868;53.398;6.564;2022-08-20T00:09:07;21.60;78.40
53962;DHT22;39868;53.398;6.564;2022-08-20T00:11:34;21.60;78.40
53962;DHT22;39868;53.398;6.564;2022-08-20T00:14:04;21.60;78.40
53962;DHT22;39868;53.398;6.564;2022-08-20T00:16:34;21.60;79.00
53962;DHT22;39868;53.398;6.564;2022-08-20T00:19:05;21.50;78.30
53962;DHT22;39868;53.398;6.564;2022-08-20T00:21:35;21.50;78.30
53962;DHT22;39868;53.398;6.564;2022-08-20T00:24:03;21.50;78.30
53962;DHT22;39868;53.398;6.564;2022-08-20T00:26:31;21.50;78.40
53962;DHT22;39868;53.398;6.564;2022-08-20T00:28:59;21.50;78.40
53962;DHT22;39868;53.398;6.564;2022-08-20T00:31:27;21.50;78.30
53962;DHT22;39868;53.398;6.564;2022-08-20T00:33:55;21.40;78.30
53962;DHT22;39868;53.398;6.564;2022-08-20T00:36:22;21.50;78.20
53962;DHT22;39868;53.398;6.564;2022-08-20T00:38:59;21.40;78.10
53962;DHT22;39868;53.398;6.564;2022-08-20T00:41:26;21.40;78.10
53962;DHT22;39868;53.398;6.564;2022-08-20T00:44:15;21.40;78.10
53962;DHT22;39868;53.398;6.564;2022-08-20T00:46:45;21.40;78.10
53962;DHT22;39868;53.398;6.564;2022-08-20T00:49:22;21.40;78.10
53962;DHT22;39868;53.398;6.564;2022-08-20T00:52:04;21.40;78.10
53962;DHT22;39868;53.398;6.564;2022-08-20T00:54:52;21.40;78.10
53962;DHT22;39868;53.398;6.564;2022-08-20T00:57:36;21.40;78.10
53962;DHT22;39868;53.398;6.564;2022-08-20T01:00:34;21.40;78.10
53962;DHT22;39868;53.398;6.564;2022-08-20T01:03:05;21.40;78.00
53962;DHT22;39868;53.398;6.564;2022-08-20T01:05:39;21.40;77.90
53962;DHT22;39868;53.398;6.564;2022-08-20T01:08:07;21.40;78.10
53962;DHT22;39868;53.398;6.564;2022-08-20T01:10:39;21.30;78.00
53962;DHT22;39868;53.398;6.564;2022-08-20T01:13:09;21.30;78.00
53962;DHT22;39868;53.398;6.564;2022-08-20T01:15:40;21.30;78.00
53962;DHT22;39868;53.398;6.564;2022-08-20T01:18:12;21.30;77.90
53962;DHT22;39868;53.398;6.564;2022-08-20T01:21:00;21.30;77.90
53962;DHT22;39868;53.398;6.564;2022-08-20T01:24:11;21.30;77.80
53962;DHT22;39868;53.398;6.564;2022-08-20T01:26:43;21.30;77.60
53962;DHT22;39868;53.398;6.564;2022-08-20T01:29:18;21.30;77.40
53962;DHT22;39868;53.398;6.564;2022-08-20T01:31:47;21.20;77.00
53962;DHT22;39868;53.398;6.564;2022-08-20T01:34:16;21.20;77.00
53962;DHT22;39868;53.398;6.564;2022-08-20T01:36:55;21.10;76.90
53962;DHT22;39868;53.398;6.564;2022-08-20T01:39:27;21.10;76.70
53962;DHT22;39868;53.398;6.564;2022-08-20T01:42:06;21.10;76.70
53962;DHT22;39868;53.398;6.564;2022-08-20T01:44:37;21.10;76.60
53962;DHT22;39868;53.398;6.564;2022-08-20T01:47:21;21.00;76.40
53962;DHT22;39868;53.398;6.564;2022-08-20T01:49:58;21.00;76.30
53962;DHT22;39868;53.398;6.564;2022-08-20T01:55:01;20.90;76.00
53962;DHT22;39868;53.398;6.564;2022-08-20T01:57:29;20.80;75.80
53962;DHT22;39868;53.398;6.564;2022-08-20T01:59:56;20.80;75.80
53962;DHT22;39868;53.398;6.564;2022-08-20T02:02:25;20.70;75.80
53962;DHT22;39868;53.398;6.564;2022-08-20T02:04:53;20.70;75.80
53962;DHT22;39868;53.398;6.564;2022-08-20T02:07:21;20.60;75.70
53962;DHT22;39868;53.398;6.564;2022-08-20T02:09:49;20.60;75.70
53962;DHT22;39868;53.398;6.564;2022-08-20T02:12:17;20.60;75.80
53962;DHT22;39868;53.398;6.564;2022-08-20T02:14:51;20.50;75.80
53962;DHT22;39868;53.398;6.564;2022-08-20T02:17:22;20.50;75.70
53962;DHT22;39868;53.398;6.564;2022-08-20T02:19:53;20.40;75.70
53962;DHT22;39868;53.398;6.564;2022-08-20T02:23:00;20.40;75.70
53962;DHT22;39868;53.398;6.564;2022-08-20T02:25:30;20.40;75.70
53962;DHT22;39868;53.398;6.564;2022-08-20T02:28:01;20.30;75.10
53962;DHT22;39868;53.398;6.564;2022-08-20T02:30:34;20.30;75.10
53962;DHT22;39868;53.398;6.564;2022-08-20T02:33:03;20.20;75.10
53962;DHT22;39868;53.398;6.564;2022-08-20T02:35:31;20.20;75.60
53962;DHT22;39868;53.398;6.564;2022-08-20T02:38:00;20.10;75.10
53962;DHT22;39868;53.398;6.564;2022-08-20T02:40:29;20.10;74.50
53962;DHT22;39868;53.398;6.564;2022-08-20T02:42:58;20.10;74.10
53962;DHT22;39868;53.398;6.564;2022-08-20T02:45:27;20.10;74.10
53962;DHT22;39868;53.398;6.564;2022-08-20T02:47:55;20.10;74.10
53962;DHT22;39868;53.398;6.564;2022-08-20T02:50:25;20.10;74.20
53962;DHT22;39868;53.398;6.564;2022-08-20T02:52:53;20.10;74.00
53962;DHT22;39868;53.398;6.564;2022-08-20T02:55:22;20.00;73.50
53962;DHT22;39868;53.398;6.564;2022-08-20T02:57:55;20.00;73.00
53962;DHT22;39868;53.398;6.564;2022-08-20T03:00:27;20.00;73.10
53962;DHT22;39868;53.398;6.564;2022-08-20T03:03:09;20.00;73.40
53962;DHT22;39868;53.398;6.564;2022-08-20T03:05:38;20.00;73.20
53962;DHT22;39868;53.398;6.564;2022-08-20T03:08:08;19.90;73.20
53962;DHT22;39868;53.398;6.564;2022-08-20T03:10:38;19.90;73.30
53962;DHT22;39868;53.398;6.564;2022-08-20T03:13:07;19.90;73.20
53962;DHT22;39868;53.398;6.564;2022-08-20T03:15:41;19.90;73.50
53962;DHT22;39868;53.398;6.564;2022-08-20T03:18:09;19.80;73.50
53962;DHT22;39868;53.398;6.564;2022-08-20T03:20:37;19.80;73.60
53962;DHT22;39868;53.398;6.564;2022-08-20T03:23:05;19.80;73.60
53962;DHT22;39868;53.398;6.564;2022-08-20T03:25:33;19.70;73.60
53962;DHT22;39868;53.398;6.564;2022-08-20T03:28:00;19.70;73.50
53962;DHT22;39868;53.398;6.564;2022-08-20T03:30:29;19.70;73.30
53962;DHT22;39868;53.398;6.564;2022-08-20T03:32:58;19.70;73.40
53962;DHT22;39868;53.398;6.564;2022-08-20T03:35:27;19.70;73.60
53962;DHT22;39868;53.398;6.564;2022-08-20T03:37:55;19.60;73.70
53962;DHT22;39868;53.398;6.564;2022-08-20T03:40:27;19.60;73.60
53962;DHT22;39868;53.398;6.564;2022-08-20T03:42:56;19.60;73.50
53962;DHT22;39868;53.398;6.564;2022-08-20T03:45:26;19.60;73.60
53962;DHT22;39868;53.398;6.564;2022-08-20T03:47:54;19.60;73.80
53962;DHT22;39868;53.398;6.564;2022-08-20T03:50:24;19.60;73.80
53962;DHT22;39868;53.398;6.564;2022-08-20T03:52:53;19.60;73.60
53962;DHT22;39868;53.398;6.564;2022-08-20T03:55:22;19.60;73.60
53962;DHT22;39868;53.398;6.564;2022-08-20T03:57:53;19.50;73.80
53962;DHT22;39868;53.398;6.564;2022-08-20T04:00:28;19.50;73.70
53962;DHT22;39868;53.398;6.564;2022-08-20T04:02:56;19.50;73.50
53962;DHT22;39868;53.398;6.564;2022-08-20T04:05:24;19.50;73.40
53962;DHT22;39868;53.398;6.564;2022-08-20T04:07:55;19.50;73.30
53962;DHT22;39868;53.398;6.564;2022-08-20T04:10:29;19.50;73.40
53962;DHT22;39868;53.398;6.564;2022-08-20T04:12:57;19.50;73.50
53962;DHT22;39868;53.398;6.564;2022-08-20T04:15:25;19.50;73.50
53962;DHT22;39868;53.398;6.564;2022-08-20T04:17:54;19.40;73.40
53962;DHT22;39868;53.398;6.564;2022-08-20T04:20:23;19.40;73.40
53962;DHT22;39868;53.398;6.564;2022-08-20T04:22:54;19.40;73.40
53962;DHT22;39868;53.398;6.564;2022-08-20T04:25:26;19.40;73.00
53962;DHT22;39868;53.398;6.564;2022-08-20T04:27:57;19.30;73.20
53962;DHT22;39868;53.398;6.564;2022-08-20T04:30:25;19.40;73.00
53962;DHT22;39868;53.398;6.564;2022-08-20T04:32:53;19.40;73.00
53962;DHT22;39868;53.398;6.564;2022-08-20T04:35:22;19.30;72.90
53962;DHT22;39868;53.398;6.564;2022-08-20T04:38:04;19.30;72.90
53962;DHT22;39868;53.398;6.564;2022-08-20T04:40:34;19.30;72.80
53962;DHT22;39868;53.398;6.564;2022-08-20T04:43:21;19.30;72.80
53962;DHT22;39868;53.398;6.564;2022-08-20T04:45:53;19.30;72.70
53962;DHT22;39868;53.398;6.564;2022-08-20T04:48:22;19.30;72.60
53962;DHT22;39868;53.398;6.564;2022-08-20T04:50:51;19.30;72.60
53962;DHT22;39868;53.398;6.564;2022-08-20T04:53:22;19.30;72.60
53962;DHT22;39868;53.398;6.564;2022-08-20T04:55:53;19.30;72.60
53962;DHT22;39868;53.398;6.564;2022-08-20T04:58:31;19.30;72.60
53962;DHT22;39868;53.398;6.564;2022-08-20T05:01:05;19.30;72.40
53962;DHT22;39868;53.398;6.564;2022-08-20T05:03:33;19.30;72.30
53962;DHT22;39868;53.398;6.564;2022-08-20T05:06:03;19.30;72.10
53962;DHT22;39868;53.398;6.564;2022-08-20T05:08:33;19.30;72.10
53962;DHT22;39868;53.398;6.564;2022-08-20T05:11:02;19.30;72.30
53962;DHT22;39868;53.398;6.564;2022-08-20T05:13:49;19.30;72.40
53962;DHT22;39868;53.398;6.564;2022-08-20T05:16:19;19.30;72.30
53962;DHT22;39868;53.398;6.564;2022-08-20T05:18:46;19.40;72.60
53962;DHT22;39868;53.398;6.564;2022-08-20T05:21:19;19.40;72.60
53962;DHT22;39868;53.398;6.564;2022-08-20T05:23:47;19.40;72.30
53962;DHT22;39868;53.398;6.564;2022-08-20T05:26:16;19.40;72.30
53962;DHT22;39868;53.398;6.564;2022-08-20T05:28:46;19.40;72.40
53962;DHT22;39868;53.398;6.564;2022-08-20T05:31:26;19.40;72.40
53962;DHT22;39868;53.398;6.564;2022-08-20T05:34:02;19.40;72.50
53962;DHT22;39868;53.398;6.564;2022-08-20T05:36:29;19.40;72.30
53962;DHT22;39868;53.398;6.564;2022-08-20T05:38:57;19.40;72.30
53962;DHT22;39868;53.398;6.564;2022-08-20T05:41:25;19.40;72.50
53962;DHT22;39868;53.398;6.564;2022-08-20T05:43:57;19.50;72.60
53962;DHT22;39868;53.398;6.564;2022-08-20T05:46:29;19.50;72.30
53962;DHT22;39868;53.398;6.564;2022-08-20T05:48:58;19.50;72.50
53962;DHT22;39868;53.398;6.564;2022-08-20T05:51:28;19.50;72.10
53962;DHT22;39868;53.398;6.564;2022-08-20T05:53:56;19.50;72.40
53962;DHT22;39868;53.398;6.564;2022-08-20T05:56:27;19.50;72.30
53962;DHT22;39868;53.398;6.564;2022-08-20T05:58:58;19.60;72.40
53962;DHT22;39868;53.398;6.564;2022-08-20T06:01:32;19.60;72.30
53962;DHT22;39868;53.398;6.564;2022-08-20T06:04:01;19.60;72.30
53962;DHT22;39868;53.398;6.564;2022-08-20T06:06:48;19.60;72.30
53962;DHT22;39868;53.398;6.564;2022-08-20T06:09:20;19.70;72.90
53962;DHT22;39868;53.398;6.564;2022-08-20T06:12:03;19.70;72.90
53962;DHT22;39868;53.398;6.564;2022-08-20T06:14:31;19.70;73.30
53962;DHT22;39868;53.398;6.564;2022-08-20T06:17:11;19.80;73.30
53962;DHT22;39868;53.398;6.564;2022-08-20T06:19:39;19.80;73.10
53962;DHT22;39868;53.398;6.564;2022-08-20T06:22:11;19.80;72.90
53962;DHT22;39868;53.398;6.564;2022-08-20T06:24:46;19.80;73.10
53962;DHT22;39868;53.398;6.564;2022-08-20T06:27:15;19.90;72.50
53962;DHT22;39868;53.398;6.564;2022-08-20T06:29:43;19.90;72.50
53962;DHT22;39868;53.398;6.564;2022-08-20T06:32:11;19.90;72.30
53962;DHT22;39868;53.398;6.564;2022-08-20T06:34:39;20.00;72.30
53962;DHT22;39868;53.398;6.564;2022-08-20T06:37:25;20.10;72.60
53962;DHT22;39868;53.398;6.564;2022-08-20T06:40:07;20.10;72.70
53962;DHT22;39868;53.398;6.564;2022-08-20T06:42:35;20.20;72.60
53962;DHT22;39868;53.398;6.564;2022-08-20T06:45:03;20.20;72.30
53962;DHT22;39868;53.398;6.564;2022-08-20T06:47:33;20.30;72.00
53962;DHT22;39868;53.398;6.564;2022-08-20T06:50:01;20.30;72.20
53962;DHT22;39868;53.398;6.564;2022-08-20T06:52:29;20.40;72.30
53962;DHT22;39868;53.398;6.564;2022-08-20T06:55:16;20.40;72.00
53962;DHT22;39868;53.398;6.564;2022-08-20T06:57:44;20.50;71.00
53962;DHT22;39868;53.398;6.564;2022-08-20T07:00:17;20.60;70.60
53962;DHT22;39868;53.398;6.564;2022-08-20T07:02:45;20.60;71.10
53962;DHT22;39868;53.398;6.564;2022-08-20T07:05:14;20.70;70.90
53962;DHT22;39868;53.398;6.564;2022-08-20T07:07:47;20.70;70.60
53962;DHT22;39868;53.398;6.564;2022-08-20T07:10:19;20.80;69.30
53962;DHT22;39868;53.398;6.564;2022-08-20T07:12:47;20.80;69.00
53962;DHT22;39868;53.398;6.564;2022-08-20T07:15:18;20.90;69.30
53962;DHT22;39868;53.398;6.564;2022-08-20T07:17:51;20.90;69.10
53962;DHT22;39868;53.398;6.564;2022-08-20T07:20:26;21.00;69.10
53962;DHT22;39868;53.398;6.564;2022-08-20T07:22:54;21.00;68.30
53962;DHT22;39868;53.398;6.564;2022-08-20T07:25:23;21.10;68.50
53962;DHT22;39868;53.398;6.564;2022-08-20T07:27:50;21.10;68.40
53962;DHT22;39868;53.398;6.564;2022-08-20T07:30:25;21.20;68.60
53962;DHT22;39868;53.398;6.564;2022-08-20T07:33:25;21.20;68.60
53962;DHT22;39868;53.398;6.564;2022-08-20T07:35:58;21.30;68.70
53962;DHT22;39868;53.398;6.564;2022-08-20T07:38:26;21.30;68.50
53962;DHT22;39868;53.398;6.564;2022-08-20T07:41:02;21.40;69.60
53962;DHT22;39868;53.398;6.564;2022-08-20T07:43:31;21.40;68.10
53962;DHT22;39868;53.398;6.564;2022-08-20T07:46:01;21.40;66.50
53962;DHT22;39868;53.398;6.564;2022-08-20T07:48:29;21.40;66.50
53962;DHT22;39868;53.398;6.564;2022-08-20T07:51:00;21.50;67.00
53962;DHT22;39868;53.398;6.564;2022-08-20T07:53:30;21.50;66.60
53962;DHT22;39868;53.398;6.564;2022-08-20T07:56:03;21.50;65.50
53962;DHT22;39868;53.398;6.564;2022-08-20T07:58:33;21.50;66.60
53962;DHT22;39868;53.398;6.564;2022-08-20T08:01:07;21.50;66.30
53962;DHT22;39868;53.398;6.564;2022-08-20T08:03:35;21.60;66.10
53962;DHT22;39868;53.398;6.564;2022-08-20T08:06:21;21.60;64.90
53962;DHT22;39868;53.398;6.564;2022-08-20T08:09:12;21.60;65.10
53962;DHT22;39868;53.398;6.564;2022-08-20T08:11:43;21.70;65.70
53962;DHT22;39868;53.398;6.564;2022-08-20T08:14:19;21.70;65.30
53962;DHT22;39868;53.398;6.564;2022-08-20T08:16:49;21.70;65.20
53962;DHT22;39868;53.398;6.564;2022-08-20T08:19:19;21.80;64.50
53962;DHT22;39868;53.398;6.564;2022-08-20T08:21:47;21.80;64.40
53962;DHT22;39868;53.398;6.564;2022-08-20T08:24:15;21.90;64.90
53962;DHT22;39868;53.398;6.564;2022-08-20T08:26:48;21.90;65.40
53962;DHT22;39868;53.398;6.564;2022-08-20T08:29:16;22.00;65.40
53962;DHT22;39868;53.398;6.564;2022-08-20T08:31:43;22.10;65.70
53962;DHT22;39868;53.398;6.564;2022-08-20T08:34:11;22.10;65.30
53962;DHT22;39868;53.398;6.564;2022-08-20T08:36:39;22.20;64.50
53962;DHT22;39868;53.398;6.564;2022-08-20T08:39:09;22.20;64.40
53962;DHT22;39868;53.398;6.564;2022-08-20T08:41:43;22.30;64.30
53962;DHT22;39868;53.398;6.564;2022-08-20T08:44:22;22.30;64.10
53962;DHT22;39868;53.398;6.564;2022-08-20T08:46:56;22.40;63.90
53962;DHT22;39868;53.398;6.564;2022-08-20T08:49:27;22.40;63.90
53962;DHT22;39868;53.398;6.564;2022-08-20T08:52:11;22.50;63.40
53962;DHT22;39868;53.398;6.564;2022-08-20T08:54:47;22.60;63.90
53962;DHT22;39868;53.398;6.564;2022-08-20T08:57:16;22.60;62.60
53962;DHT22;39868;53.398;6.564;2022-08-20T08:59:47;22.70;63.10
53962;DHT22;39868;53.398;6.564;2022-08-20T09:02:32;22.70;62.80
53962;DHT22;39868;53.398;6.564;2022-08-20T09:05:02;22.80;63.70
53962;DHT22;39868;53.398;6.564;2022-08-20T09:07:32;22.80;63.50
53962;DHT22;39868;53.398;6.564;2022-08-20T09:10:00;22.90;63.20
53962;DHT22;39868;53.398;6.564;2022-08-20T09:12:28;22.90;63.40
53962;DHT22;39868;53.398;6.564;2022-08-20T09:14:56;22.90;63.60
53962;DHT22;39868;53.398;6.564;2022-08-20T09:17:23;23.00;63.60
53962;DHT22;39868;53.398;6.564;2022-08-20T09:19:51;23.00;63.20
53962;DHT22;39868;53.398;6.564;2022-08-20T09:22:21;23.10;62.80
53962;DHT22;39868;53.398;6.564;2022-08-20T09:24:51;23.10;62.00
53962;DHT22;39868;53.398;6.564;2022-08-20T09:27:19;23.10;61.70
53962;DHT22;39868;53.398;6.564;2022-08-20T09:29:47;23.20;62.30
53962;DHT22;39868;53.398;6.564;2022-08-20T09:32:18;23.30;62.20
53962;DHT22;39868;53.398;6.564;2022-08-20T09:34:49;23.30;61.70
53962;DHT22;39868;53.398;6.564;2022-08-20T09:37:25;23.40;61.60
53962;DHT22;39868;53.398;6.564;2022-08-20T09:39:54;23.40;59.80
53962;DHT22;39868;53.398;6.564;2022-08-20T09:42:26;23.40;60.10
53962;DHT22;39868;53.398;6.564;2022-08-20T09:44:54;23.40;60.20
53962;DHT22;39868;53.398;6.564;2022-08-20T09:47:22;23.40;60.10
53962;DHT22;39868;53.398;6.564;2022-08-20T09:49:50;23.40;60.40
53962;DHT22;39868;53.398;6.564;2022-08-20T09:52:22;23.40;60.60
53962;DHT22;39868;53.398;6.564;2022-08-20T09:54:51;23.40;60.00
53962;DHT22;39868;53.398;6.564;2022-08-20T09:57:21;23.50;60.00
53962;DHT22;39868;53.398;6.564;2022-08-20T10:00:00;23.50;59.30
53962;DHT22;39868;53.398;6.564;2022-08-20T10:02:38;23.50;57.60
53962;DHT22;39868;53.398;6.564;2022-08-20T10:05:07;23.50;59.10
53962;DHT22;39868;53.398;6.564;2022-08-20T10:07:39;23.50;59.40
53962;DHT22;39868;53.398;6.564;2022-08-20T10:10:09;23.50;59.80
53962;DHT22;39868;53.398;6.564;2022-08-20T10:12:37;23.50;60.10
53962;DHT22;39868;53.398;6.564;2022-08-20T10:15:08;23.60;60.00
53962;DHT22;39868;53.398;6.564;2022-08-20T10:17:38;23.60;59.50
53962;DHT22;39868;53.398;6.564;2022-08-20T10:20:08;23.60;59.70
53962;DHT22;39868;53.398;6.564;2022-08-20T10:22:37;23.60;58.80
53962;DHT22;39868;53.398;6.564;2022-08-20T10:25:05;23.60;59.40
53962;DHT22;39868;53.398;6.564;2022-08-20T10:27:33;23.60;59.10
53962;DHT22;39868;53.398;6.564;2022-08-20T10:30:04;23.60;59.80
53962;DHT22;39868;53.398;6.564;2022-08-20T10:32:32;23.60;57.60
53962;DHT22;39868;53.398;6.564;2022-08-20T10:35:00;23.70;58.80
53962;DHT22;39868;53.398;6.564;2022-08-20T10:37:27;23.60;60.00
53962;DHT22;39868;53.398;6.564;2022-08-20T10:39:55;23.60;56.80
53962;DHT22;39868;53.398;6.564;2022-08-20T10:42:23;23.60;56.60
53962;DHT22;39868;53.398;6.564;2022-08-20T10:44:51;23.60;56.60
53962;DHT22;39868;53.398;6.564;2022-08-20T10:47:24;23.60;58.30
53962;DHT22;39868;53.398;6.564;2022-08-20T10:49:54;23.50;57.80
53962;DHT22;39868;53.398;6.564;2022-08-20T10:52:22;23.50;57.50
53962;DHT22;39868;53.398;6.564;2022-08-20T10:54:51;23.50;58.10
53962;DHT22;39868;53.398;6.564;2022-08-20T10:57:22;23.40;58.00
53962;DHT22;39868;53.398;6.564;2022-08-20T10:59:52;23.40;58.30
53962;DHT22;39868;53.398;6.564;2022-08-20T11:02:20;23.40;59.00
53962;DHT22;39868;53.398;6.564;2022-08-20T11:04:49;23.40;58.30
53962;DHT22;39868;53.398;6.564;2022-08-20T11:07:28;23.50;58.00
53962;DHT22;39868;53.398;6.564;2022-08-20T11:10:16;23.50;57.90
53962;DHT22;39868;53.398;6.564;2022-08-20T11:12:44;23.50;59.20
53962;DHT22;39868;53.398;6.564;2022-08-20T11:15:13;23.60;58.60
53962;DHT22;39868;53.398;6.564;2022-08-20T11:17:42;23.60;59.00
53962;DHT22;39868;53.398;6.564;2022-08-20T11:20:13;23.70;58.60
53962;DHT22;39868;53.398;6.564;2022-08-20T11:22:42;23.80;59.50
53962;DHT22;39868;53.398;6.564;2022-08-20T11:25:10;23.90;57.60
53962;DHT22;39868;53.398;6.564;2022-08-20T11:27:40;24.10;57.30
53962;DHT22;39868;53.398;6.564;2022-08-20T11:30:12;24.20;57.50
53962;DHT22;39868;53.398;6.564;2022-08-20T11:32:41;24.30;57.30
53962;DHT22;39868;53.398;6.564;2022-08-20T11:35:09;24.30;57.60
53962;DHT22;39868;53.398;6.564;2022-08-20T11:37:57;24.40;57.50
53962;DHT22;39868;53.398;6.564;2022-08-20T11:40:26;24.40;56.20
53962;DHT22;39868;53.398;6.564;2022-08-20T11:42:54;24.50;56.00
53962;DHT22;39868;53.398;6.564;2022-08-20T11:45:41;24.50;57.60
53962;DHT22;39868;53.398;6.564;2022-08-20T11:48:09;24.60;57.20
53962;DHT22;39868;53.398;6.564;2022-08-20T11:50:36;24.70;55.20
53962;DHT22;39868;53.398;6.564;2022-08-20T11:53:04;24.70;56.60
53962;DHT22;39868;53.398;6.564;2022-08-20T11:55:34;24.70;56.40
53962;DHT22;39868;53.398;6.564;2022-08-20T11:58:02;24.70;56.40
53962;DHT22;39868;53.398;6.564;2022-08-20T12:00:30;24.70;57.10
53962;DHT22;39868;53.398;6.564;2022-08-20T12:03:06;24.70;55.90
53962;DHT22;39868;53.398;6.564;2022-08-20T12:05:38;24.70;56.90
53962;DHT22;39868;53.398;6.564;2022-08-20T12:08:07;24.70;54.10
53962;DHT22;39868;53.398;6.564;2022-08-20T12:10:36;24.60;52.70
53962;DHT22;39868;53.398;6.564;2022-08-20T12:13:05;24.60;53.70
53962;DHT22;39868;53.398;6.564;2022-08-20T12:15:34;24.60;53.70
53962;DHT22;39868;53.398;6.564;2022-08-20T12:18:08;24.60;55.60
53962;DHT22;39868;53.398;6.564;2022-08-20T12:20:37;24.70;55.00
53962;DHT22;39868;53.398;6.564;2022-08-20T12:23:04;24.70;54.10
53962;DHT22;39868;53.398;6.564;2022-08-20T12:25:32;24.70;54.30
53962;DHT22;39868;53.398;6.564;2022-08-20T12:28:00;24.70;52.70
53962;DHT22;39868;53.398;6.564;2022-08-20T12:30:28;24.70;54.40
53962;DHT22;39868;53.398;6.564;2022-08-20T12:32:55;24.70;53.40
53962;DHT22;39868;53.398;6.564;2022-08-20T12:35:23;24.70;52.90
53962;DHT22;39868;53.398;6.564;2022-08-20T12:37:51;24.60;52.70
53962;DHT22;39868;53.398;6.564;2022-08-20T12:40:23;24.60;53.20
53962;DHT22;39868;53.398;6.564;2022-08-20T12:43:00;24.50;54.00
53962;DHT22;39868;53.398;6.564;2022-08-20T12:45:28;24.50;54.00
53962;DHT22;39868;53.398;6.564;2022-08-20T12:48:02;24.50;54.30
53962;DHT22;39868;53.398;6.564;2022-08-20T12:50:30;24.50;53.10
53962;DHT22;39868;53.398;6.564;2022-08-20T12:52:59;24.40;55.00
53962;DHT22;39868;53.398;6.564;2022-08-20T12:55:27;24.50;53.70
53962;DHT22;39868;53.398;6.564;2022-08-20T12:57:57;24.50;54.00
53962;DHT22;39868;53.398;6.564;2022-08-20T13:00:32;24.50;55.10
53962;DHT22;39868;53.398;6.564;2022-08-20T13:03:02;24.50;54.00
53962;DHT22;39868;53.398;6.564;2022-08-20T13:05:31;24.60;54.20
53962;DHT22;39868;53.398;6.564;2022-08-20T13:07:59;24.60;54.00
53962;DHT22;39868;53.398;6.564;2022-08-20T13:10:29;24.60;54.90
53962;DHT22;39868;53.398;6.564;2022-08-20T13:12:58;24.60;55.20
53962;DHT22;39868;53.398;6.564;2022-08-20T13:15:25;24.60;55.30
53962;DHT22;39868;53.398;6.564;2022-08-20T13:17:54;24.60;54.80
53962;DHT22;39868;53.398;6.564;2022-08-20T13:20:24;24.60;54.00
53962;DHT22;39868;53.398;6.564;2022-08-20T13:23:02;24.50;55.20
53962;DHT22;39868;53.398;6.564;2022-08-20T13:25:31;24.50;55.10
53962;DHT22;39868;53.398;6.564;2022-08-20T13:28:01;24.50;54.40
53962;DHT22;39868;53.398;6.564;2022-08-20T13:30:32;24.60;55.20
53962;DHT22;39868;53.398;6.564;2022-08-20T13:33:01;24.60;54.90
53962;DHT22;39868;53.398;6.564;2022-08-20T13:35:29;24.70;55.20
53962;DHT22;39868;53.398;6.564;2022-08-20T13:37:56;24.80;53.30
53962;DHT22;39868;53.398;6.564;2022-08-20T13:40:24;24.90;52.80
53962;DHT22;39868;53.398;6.564;2022-08-20T13:42:52;25.00;53.30
53962;DHT22;39868;53.398;6.564;2022-08-20T13:45:20;25.20;53.50
53962;DHT22;39868;53.398;6.564;2022-08-20T13:47:51;25.20;53.50
53962;DHT22;39868;53.398;6.564;2022-08-20T13:50:20;25.30;53.30
53962;DHT22;39868;53.398;6.564;2022-08-20T13:52:48;25.40;54.10
53962;DHT22;39868;53.398;6.564;2022-08-20T13:55:18;25.50;52.90
53962;DHT22;39868;53.398;6.564;2022-08-20T13:57:48;25.60;54.10
53962;DHT22;39868;53.398;6.564;2022-08-20T14:00:27;25.60;53.50
53962;DHT22;39868;53.398;6.564;2022-08-20T14:02:59;25.60;52.50
53962;DHT22;39868;53.398;6.564;2022-08-20T14:05:28;25.60;52.80
53962;DHT22;39868;53.398;6.564;2022-08-20T14:08:06;25.60;53.70
53962;DHT22;39868;53.398;6.564;2022-08-20T14:10:35;25.60;54.80
53962;DHT22;39868;53.398;6.564;2022-08-20T14:13:03;25.70;54.60
53962;DHT22;39868;53.398;6.564;2022-08-20T14:15:33;25.80;54.60
53962;DHT22;39868;53.398;6.564;2022-08-20T14:18:03;25.80;53.10
53962;DHT22;39868;53.398;6.564;2022-08-20T14:20:32;25.80;53.10
53962;DHT22;39868;53.398;6.564;2022-08-20T14:23:00;25.90;53.00
53962;DHT22;39868;53.398;6.564;2022-08-20T14:25:30;25.80;53.40
53962;DHT22;39868;53.398;6.564;2022-08-20T14:28:00;25.80;52.20
53962;DHT22;39868;53.398;6.564;2022-08-20T14:30:34;25.70;51.90
53962;DHT22;39868;53.398;6.564;2022-08-20T14:33:02;25.70;51.00
53962;DHT22;39868;53.398;6.564;2022-08-20T14:35:30;25.70;52.30
53962;DHT22;39868;53.398;6.564;2022-08-20T14:38:00;25.80;52.50
53962;DHT22;39868;53.398;6.564;2022-08-20T14:40:31;25.80;52.50
53962;DHT22;39868;53.398;6.564;2022-08-20T14:42:59;25.90;54.00
53962;DHT22;39868;53.398;6.564;2022-08-20T14:45:27;25.90;53.60
53962;DHT22;39868;53.398;6.564;2022-08-20T14:48:15;26.00;52.70
53962;DHT22;39868;53.398;6.564;2022-08-20T14:50:42;26.10;52.80
53962;DHT22;39868;53.398;6.564;2022-08-20T14:53:10;26.10;52.20
53962;DHT22;39868;53.398;6.564;2022-08-20T14:55:38;26.10;51.40
53962;DHT22;39868;53.398;6.564;2022-08-20T14:58:08;26.00;51.80
53962;DHT22;39868;53.398;6.564;2022-08-20T15:00:36;26.00;51.70
53962;DHT22;39868;53.398;6.564;2022-08-20T15:03:03;26.00;50.20
53962;DHT22;39868;53.398;6.564;2022-08-20T15:05:31;26.00;51.40
53962;DHT22;39868;53.398;6.564;2022-08-20T15:07:59;25.90;49.60
53962;DHT22;39868;53.398;6.564;2022-08-20T15:10:30;25.90;51.10
53962;DHT22;39868;53.398;6.564;2022-08-20T15:13:00;25.80;51.30
53962;DHT22;39868;53.398;6.564;2022-08-20T15:15:28;25.70;51.90
53962;DHT22;39868;53.398;6.564;2022-08-20T15:17:58;25.60;52.10
53962;DHT22;39868;53.398;6.564;2022-08-20T15:20:31;25.50;51.80
53962;DHT22;39868;53.398;6.564;2022-08-20T15:22:59;25.40;52.20
53962;DHT22;39868;53.398;6.564;2022-08-20T15:25:29;25.30;52.60
53962;DHT22;39868;53.398;6.564;2022-08-20T15:28:05;25.20;53.30
53962;DHT22;39868;53.398;6.564;2022-08-20T15:30:34;25.20;53.40
53962;DHT22;39868;53.398;6.564;2022-08-20T15:33:01;25.10;53.90
53962;DHT22;39868;53.398;6.564;2022-08-20T15:35:29;25.00;54.00
53962;DHT22;39868;53.398;6.564;2022-08-20T15:37:58;25.00;54.40
53962;DHT22;39868;53.398;6.564;2022-08-20T15:40:28;24.90;53.80
53962;DHT22;39868;53.398;6.564;2022-08-20T15:42:58;24.90;54.20
53962;DHT22;39868;53.398;6.564;2022-08-20T15:45:26;24.80;54.50
53962;DHT22;39868;53.398;6.564;2022-08-20T15:56:02;25.10;54.30
53962;DHT22;39868;53.398;6.564;2022-08-20T16:01:59;25.20;53.50
53962;DHT22;39868;53.398;6.564;2022-08-20T16:08:10;25.30;53.60
53962;DHT22;39868;53.398;6.564;2022-08-20T16:16:25;25.20;53.10
53962;DHT22;39868;53.398;6.564;2022-08-20T16:18:53;25.10;52.40